createdAt,value
2023-01-17T00:00:40.939Z,88.38
2023-01-17T00:03:07.495Z,87.53
2023-01-17T00:05:52.623Z,87.48
2023-01-17T00:08:37.831Z,88.85
2023-01-17T00:11:04.389Z,88.61
2023-01-17T00:13:30.968Z,88.51
2023-01-17T00:15:57.640Z,88.04
2023-01-17T00:18:24.623Z,87.67
2023-01-17T00:21:09.656Z,88.19
2023-01-17T00:24:01.799Z,89.14
2023-01-17T00:26:31.121Z,88.88
2023-01-17T00:28:57.651Z,87.24
2023-01-17T00:33:55.420Z,86.21
2023-01-17T00:36:22.004Z,86.28
2023-01-17T00:38:48.523Z,86.07
2023-01-17T00:41:15.368Z,86.16
2023-01-17T00:44:00.618Z,85.32
2023-01-17T00:46:46.225Z,86.89
2023-01-17T00:49:31.746Z,87.01
2023-01-17T00:55:06.531Z,85.85
2023-01-17T00:57:51.559Z,85.89
2023-01-17T01:00:39.950Z,86.02
2023-01-17T01:03:29.058Z,85.78
2023-01-17T01:06:14.094Z,84.62
2023-01-17T01:08:59.283Z,83.66
2023-01-17T01:11:44.261Z,83.88
2023-01-17T01:14:29.654Z,84.38
2023-01-17T01:17:14.698Z,83.73
2023-01-17T01:20:00.247Z,85.20
2023-01-17T01:22:45.311Z,85.35
2023-01-17T01:25:30.658Z,86.46
2023-01-17T01:28:24.125Z,85.79
2023-01-17T01:31:09.632Z,84.87
2023-01-17T01:33:36.258Z,83.66
2023-01-17T01:36:02.896Z,83.72
2023-01-17T01:38:29.509Z,84.09
2023-01-17T01:40:57.009Z,83.90
2023-01-17T01:43:47.290Z,83.40
2023-01-17T01:46:22.438Z,83.23
2023-01-17T01:48:51.368Z,82.11
2023-01-17T01:51:24.004Z,82.27
2023-01-17T01:53:54.528Z,81.26
2023-01-17T01:56:23.709Z,80.63
2023-01-17T01:58:53.044Z,79.85
2023-01-17T02:01:20.222Z,80.43
2023-01-17T02:03:48.036Z,79.26
2023-01-17T02:06:19.380Z,80.66
2023-01-17T02:08:46.309Z,81.04
2023-01-17T02:11:13.052Z,80.78
2023-01-17T02:13:40.934Z,79.50
2023-01-17T02:16:13.513Z,80.11
2023-01-17T02:19:01.218Z,79.53
2023-01-17T02:21:40.886Z,79.00
2023-01-17T02:27:04.667Z,79.04
2023-01-17T02:32:11.599Z,78.21
2023-01-17T02:34:56.078Z,78.87
2023-01-17T02:37:35.015Z,78.92
2023-01-17T02:40:14.482Z,79.37
2023-01-17T02:42:49.002Z,78.13
2023-01-17T02:45:18.390Z,75.82
2023-01-17T02:47:45.061Z,77.90
2023-01-17T02:50:23.941Z,77.27
2023-01-17T02:52:56.581Z,76.26
2023-01-17T02:56:06.172Z,77.18
2023-01-17T02:58:49.532Z,76.21
2023-01-17T03:01:34.039Z,76.43
2023-01-17T03:04:20.721Z,76.39
2023-01-17T03:06:54.017Z,75.64
2023-01-17T03:09:22.719Z,76.10
2023-01-17T03:11:49.283Z,75.06
2023-01-17T03:14:15.839Z,75.00
2023-01-17T03:16:42.797Z,76.55
2023-01-17T03:19:10.031Z,75.69
2023-01-17T03:21:36.753Z,74.29
2023-01-17T03:24:03.523Z,75.32
2023-01-17T03:26:30.360Z,75.11
2023-01-17T03:28:56.951Z,74.91
2023-01-17T03:31:24.057Z,74.90
2023-01-17T03:33:50.621Z,75.87
2023-01-17T03:36:17.175Z,76.03
2023-01-17T03:38:43.749Z,76.47
2023-01-17T03:41:10.304Z,76.02
2023-01-17T03:43:37.008Z,75.84
2023-01-17T03:46:05.866Z,75.81
2023-01-17T03:48:33.214Z,77.04
2023-01-17T03:50:59.995Z,78.08
2023-01-17T03:53:26.720Z,79.12
2023-01-17T03:55:53.298Z,80.08
2023-01-17T04:00:51.544Z,83.95
2023-01-17T04:03:18.073Z,85.94
2023-01-17T04:05:44.852Z,89.13
2023-01-17T04:08:11.592Z,91.01
2023-01-17T04:10:38.216Z,91.56
2023-01-17T04:13:04.953Z,91.62
2023-01-17T04:15:31.616Z,89.56
2023-01-17T04:17:58.407Z,91.29
2023-01-17T04:20:37.938Z,89.66
2023-01-17T04:23:05.186Z,87.46
2023-01-17T04:25:32.087Z,87.39
2023-01-17T04:28:00.321Z,86.43
2023-01-17T04:30:28.664Z,87.55
2023-01-17T04:32:55.382Z,87.42
2023-01-17T04:35:21.965Z,87.96
2023-01-17T04:37:49.015Z,87.63
2023-01-17T04:40:15.705Z,88.15
2023-01-17T04:42:45.136Z,86.68
2023-01-17T04:45:12.951Z,87.52
2023-01-17T04:47:39.595Z,87.96
2023-01-17T04:50:06.646Z,87.10
2023-01-17T04:52:33.350Z,87.67
2023-01-17T04:54:59.923Z,88.13
2023-01-17T04:57:26.457Z,88.22
2023-01-17T04:59:56.043Z,88.33
2023-01-17T05:02:22.749Z,88.55
2023-01-17T05:04:49.450Z,88.25
2023-01-17T05:07:16.105Z,88.32
2023-01-17T05:09:43.940Z,88.55
2023-01-17T05:12:10.918Z,86.74
2023-01-17T05:14:37.569Z,86.78
2023-01-17T05:17:04.139Z,86.34
2023-01-17T05:19:30.744Z,87.95
2023-01-17T05:22:04.153Z,88.23
2023-01-17T05:24:32.341Z,87.57
2023-01-17T05:27:03.226Z,87.86
2023-01-17T05:32:09.132Z,87.75
2023-01-17T05:34:35.714Z,88.06
2023-01-17T05:37:02.409Z,87.79
2023-01-17T05:39:31.075Z,88.36
2023-01-17T05:41:58.105Z,88.86
2023-01-17T05:44:24.685Z,88.15
2023-01-17T05:46:51.272Z,86.52
2023-01-17T05:49:17.857Z,85.47
2023-01-17T05:51:44.395Z,85.51
2023-01-17T05:56:42.323Z,87.05
2023-01-17T05:59:09.033Z,86.90
2023-01-17T06:01:35.613Z,87.86
2023-01-17T06:04:02.190Z,86.45
2023-01-17T06:06:28.723Z,88.13
2023-01-17T06:11:33.371Z,87.71
2023-01-17T06:13:59.945Z,88.83
2023-01-17T06:16:26.565Z,87.70
2023-01-17T06:18:53.283Z,88.26
2023-01-17T06:21:19.915Z,89.55
2023-01-17T06:23:46.503Z,92.83
2023-01-17T06:26:13.182Z,87.77
2023-01-17T06:28:39.706Z,87.83
2023-01-17T06:31:09.574Z,88.03
2023-01-17T06:33:36.231Z,87.83
2023-01-17T06:36:02.905Z,86.47
2023-01-17T06:38:30.050Z,87.66
2023-01-17T06:41:00.392Z,87.70
2023-01-17T06:43:28.931Z,88.55
2023-01-17T06:45:55.501Z,88.17
2023-01-17T06:48:22.060Z,88.19
2023-01-17T06:50:49.905Z,87.52
2023-01-17T06:53:16.755Z,86.10
2023-01-17T06:58:16.333Z,86.36
2023-01-17T07:00:42.958Z,84.42
2023-01-17T07:03:20.205Z,83.29
2023-01-17T07:05:46.985Z,82.87
2023-01-17T07:08:13.683Z,82.07
2023-01-17T07:10:40.324Z,81.42
2023-01-17T07:13:06.952Z,80.88
2023-01-17T07:15:34.050Z,81.15
2023-01-17T07:18:02.100Z,81.87
2023-01-17T07:20:28.711Z,81.76
2023-01-17T07:22:55.303Z,81.61
2023-01-17T07:25:21.992Z,80.58
2023-01-17T07:27:48.723Z,79.62
2023-01-17T07:30:15.510Z,79.65
2023-01-17T07:32:42.137Z,79.68
2023-01-17T07:35:09.049Z,80.32
2023-01-17T07:37:35.673Z,80.86
2023-01-17T07:40:03.172Z,80.49
2023-01-17T07:42:29.779Z,79.85
2023-01-17T07:44:56.345Z,79.99
2023-01-17T07:47:24.884Z,81.33
2023-01-17T07:49:51.490Z,82.14
2023-01-17T07:54:49.315Z,81.71
2023-01-17T07:57:15.905Z,81.14
2023-01-17T07:59:42.484Z,77.74
2023-01-17T08:02:20.700Z,80.60
2023-01-17T08:04:48.015Z,81.34
2023-01-17T08:07:15.127Z,81.08
2023-01-17T08:09:43.122Z,82.21
2023-01-17T08:12:10.704Z,83.71
2023-01-17T08:14:37.285Z,83.33
2023-01-17T08:17:15.100Z,83.46
2023-01-17T08:19:41.762Z,83.59
2023-01-17T08:22:08.383Z,80.94
2023-01-17T08:24:35.504Z,80.28
2023-01-17T08:27:02.172Z,79.65
2023-01-17T08:29:29.475Z,79.73
2023-01-17T08:31:56.085Z,81.13
2023-01-17T08:34:22.748Z,82.23
2023-01-17T08:36:49.317Z,82.90
2023-01-17T08:39:15.884Z,84.27
2023-01-17T08:41:42.393Z,84.67
2023-01-17T08:44:09.035Z,83.88
2023-01-17T08:46:38.420Z,84.11
2023-01-17T08:49:05.527Z,83.86
2023-01-17T08:51:32.968Z,82.54
2023-01-17T08:53:59.588Z,82.21
2023-01-17T08:56:27.523Z,81.05
2023-01-17T08:58:54.139Z,79.09
2023-01-17T09:01:20.866Z,78.67
2023-01-17T09:03:51.520Z,77.47
2023-01-17T09:06:18.162Z,74.63
2023-01-17T09:08:47.172Z,75.33
2023-01-17T09:11:17.575Z,76.07
2023-01-17T09:13:44.773Z,74.97
2023-01-17T09:16:11.381Z,73.28
2023-01-17T09:18:38.130Z,73.40
2023-01-17T09:21:30.831Z,74.26
2023-01-17T09:23:57.487Z,73.30
2023-01-17T09:26:27.131Z,70.11
2023-01-17T09:28:54.312Z,71.49
2023-01-17T09:31:22.989Z,71.01
2023-01-17T09:36:24.117Z,67.33
2023-01-17T09:38:56.732Z,65.78
2023-01-17T09:41:30.498Z,65.14
2023-01-17T09:44:03.229Z,64.75
2023-01-17T09:46:33.895Z,63.47
2023-01-17T09:49:08.695Z,62.61
2023-01-17T09:51:36.885Z,62.66
2023-01-17T09:54:03.747Z,62.34
2023-01-17T09:56:42.805Z,59.39
2023-01-17T09:59:33.206Z,59.55
2023-01-17T10:02:31.157Z,60.67
2023-01-17T10:07:50.019Z,63.88
2023-01-17T10:13:45.358Z,64.66
2023-01-17T10:16:45.973Z,64.60
2023-01-17T10:19:35.685Z,66.26
2023-01-17T10:22:24.212Z,63.25
2023-01-17T10:25:27.310Z,64.47
2023-01-17T10:30:51.295Z,67.12
2023-01-17T10:33:37.673Z,66.73
2023-01-17T10:39:01.357Z,64.99
2023-01-17T10:41:39.917Z,62.30
2023-01-17T10:44:19.999Z,62.47
2023-01-17T10:47:12.837Z,62.56
2023-01-17T10:49:44.978Z,61.42
2023-01-17T10:52:36.573Z,63.38
2023-01-17T10:55:24.468Z,62.29
2023-01-17T10:57:51.382Z,62.31
2023-01-17T11:00:28.633Z,64.38
2023-01-17T11:02:55.647Z,63.22
2023-01-17T11:05:29.108Z,63.65
2023-01-17T11:08:03.959Z,63.33
2023-01-17T11:10:40.300Z,61.70
2023-01-17T11:13:32.134Z,60.22
2023-01-17T11:16:02.303Z,60.75
2023-01-17T11:18:35.247Z,60.83
2023-01-17T11:21:23.412Z,62.95
2023-01-17T11:23:58.334Z,62.03
2023-01-17T11:26:28.876Z,62.31
2023-01-17T11:29:30.805Z,62.02
2023-01-17T11:31:57.471Z,60.09
2023-01-17T11:34:26.370Z,57.72
2023-01-17T11:37:09.807Z,56.54
2023-01-17T11:39:36.355Z,58.22
2023-01-17T11:42:06.419Z,56.83
2023-01-17T11:44:35.135Z,53.81
2023-01-17T11:47:08.982Z,52.43
2023-01-17T11:49:35.741Z,50.01
2023-01-17T11:52:09.126Z,50.26
2023-01-17T11:54:42.640Z,51.74
2023-01-17T11:57:30.936Z,51.28
2023-01-17T12:00:08.760Z,51.28
2023-01-17T12:02:35.786Z,50.24
2023-01-17T12:05:17.046Z,48.41
2023-01-17T12:08:01.888Z,48.41
2023-01-17T12:10:52.970Z,50.54
2023-01-17T12:13:47.117Z,50.33
2023-01-17T12:16:35.175Z,49.11
2023-01-17T12:19:21.193Z,49.83
2023-01-17T12:22:08.652Z,51.02
2023-01-17T12:24:41.374Z,49.60
2023-01-17T12:27:12.864Z,49.39
2023-01-17T12:29:48.394Z,49.76
2023-01-17T12:32:31.606Z,48.53
2023-01-17T12:35:21.004Z,47.88
2023-01-17T12:38:05.561Z,49.26
2023-01-17T12:40:44.451Z,49.13
2023-01-17T12:43:33.033Z,48.83
2023-01-17T12:46:06.970Z,48.41
2023-01-17T12:48:37.951Z,49.06
2023-01-17T12:51:19.409Z,49.86
2023-01-17T12:54:20.037Z,49.53
2023-01-17T12:56:54.663Z,48.29
2023-01-17T12:59:42.598Z,50.30
2023-01-17T13:02:21.550Z,48.54
2023-01-17T13:05:08.894Z,48.24
2023-01-17T13:07:53.624Z,48.15
2023-01-17T13:10:41.364Z,48.34
2023-01-17T13:13:22.745Z,48.47
2023-01-17T13:15:54.308Z,49.13
2023-01-17T13:18:25.974Z,49.35
2023-01-17T13:21:12.180Z,48.83
2023-01-17T13:23:55.977Z,49.20
2023-01-17T13:27:01.442Z,49.48
2023-01-17T13:30:05.847Z,48.18
2023-01-17T13:33:03.570Z,49.70
2023-01-17T13:35:42.976Z,50.68
2023-01-17T13:38:28.473Z,51.32
2023-01-17T13:41:05.084Z,48.87
2023-01-17T13:43:40.630Z,49.27
2023-01-17T13:46:07.625Z,48.82
2023-01-17T13:48:38.640Z,48.46
2023-01-17T13:51:07.547Z,49.37
2023-01-17T13:53:34.140Z,49.80
2023-01-17T13:56:18.928Z,49.92
2023-01-17T13:58:47.274Z,49.62
2023-01-17T14:03:51.352Z,48.43
2023-01-17T14:06:36.166Z,49.32
2023-01-17T14:09:08.724Z,49.34
2023-01-17T14:12:02.602Z,48.63
2023-01-17T14:14:44.081Z,48.66
2023-01-17T14:17:16.765Z,49.65
2023-01-17T14:19:48.417Z,48.78
2023-01-17T14:22:20.960Z,49.31
2023-01-17T14:24:58.513Z,49.51
2023-01-17T14:27:27.506Z,48.97
2023-01-17T14:29:59.120Z,49.57
2023-01-17T14:32:35.454Z,50.77
2023-01-17T14:35:02.625Z,53.44
2023-01-17T14:40:26.581Z,49.76
2023-01-17T14:43:13.963Z,50.81
2023-01-17T14:45:42.426Z,49.96
2023-01-17T14:48:18.984Z,52.17
2023-01-17T14:50:50.346Z,51.65
2023-01-17T14:53:20.197Z,51.33
2023-01-17T14:55:55.283Z,50.60
2023-01-17T14:58:24.924Z,49.51
2023-01-17T15:01:03.092Z,51.20
2023-01-17T15:03:33.807Z,52.02
2023-01-17T15:06:10.887Z,50.73
2023-01-17T15:08:37.709Z,50.52
2023-01-17T15:11:16.138Z,54.12
2023-01-17T15:13:49.940Z,51.22
2023-01-17T15:16:28.274Z,51.58
2023-01-17T15:18:56.347Z,52.66
2023-01-17T15:21:26.528Z,50.81
2023-01-17T15:23:58.212Z,51.09
2023-01-17T15:26:28.355Z,50.66
2023-01-17T15:29:03.126Z,51.86
2023-01-17T15:31:41.832Z,53.14
2023-01-17T15:34:16.647Z,53.73
2023-01-17T15:36:43.370Z,53.37
2023-01-17T15:42:26.471Z,51.88
2023-01-17T15:44:59.613Z,54.54
2023-01-17T15:47:30.916Z,53.87
2023-01-17T15:49:58.401Z,54.58
2023-01-17T15:52:25.018Z,52.38
2023-01-17T15:54:54.703Z,54.41
2023-01-17T15:57:28.338Z,52.25
2023-01-17T15:59:54.971Z,50.97
2023-01-17T16:02:45.541Z,51.74
2023-01-17T16:05:34.050Z,51.93
2023-01-17T16:08:03.415Z,52.90
2023-01-17T16:10:32.139Z,53.43
2023-01-17T16:18:23.091Z,52.57
2023-01-17T16:21:00.062Z,52.01
2023-01-17T16:23:28.216Z,52.30
2023-01-17T16:25:54.815Z,52.97
2023-01-17T16:28:21.402Z,52.16
2023-01-17T16:30:49.022Z,51.70
2023-01-17T16:33:16.249Z,52.50
2023-01-17T16:35:43.244Z,51.36
2023-01-17T16:38:14.147Z,51.86
2023-01-17T16:40:44.556Z,52.54
2023-01-17T16:43:12.934Z,51.91
2023-01-17T16:48:32.972Z,55.16
2023-01-17T16:56:18.452Z,52.88
2023-01-17T16:58:45.250Z,52.80
2023-01-17T17:01:17.643Z,53.43
2023-01-17T17:03:45.096Z,53.91
2023-01-17T17:08:43.795Z,53.48
2023-01-17T17:11:24.629Z,53.50
2023-01-17T17:19:06.504Z,52.48
2023-01-17T17:21:34.691Z,52.43
2023-01-17T17:24:02.187Z,55.53
2023-01-17T17:26:32.530Z,55.67
2023-01-17T17:28:59.260Z,54.43
2023-01-17T17:31:26.141Z,55.77
2023-01-17T17:33:53.549Z,56.88
2023-01-17T17:36:22.482Z,57.87
2023-01-17T17:38:52.112Z,59.20
2023-01-17T17:41:21.975Z,60.20
2023-01-17T17:46:23.615Z,62.91
2023-01-17T17:48:50.249Z,64.67
2023-01-17T17:51:23.137Z,66.49
2023-01-17T17:53:50.270Z,68.60
2023-01-17T17:56:16.826Z,69.68
2023-01-17T17:58:46.078Z,70.79
2023-01-17T18:01:12.920Z,71.98
2023-01-17T18:03:39.783Z,72.87
2023-01-17T18:06:09.325Z,74.03
2023-01-17T18:08:37.707Z,74.57
2023-01-17T18:11:09.206Z,75.90
2023-01-17T18:13:35.703Z,76.75
2023-01-17T18:16:08.823Z,75.18
2023-01-17T18:18:37.206Z,76.61
2023-01-17T18:21:17.771Z,76.82
2023-01-17T18:23:45.179Z,76.68
2023-01-17T18:26:23.157Z,76.17
2023-01-17T18:28:50.057Z,77.64
2023-01-17T18:33:55.569Z,79.00
2023-01-17T18:36:23.659Z,79.31
2023-01-17T18:41:29.924Z,78.54
2023-01-17T18:43:57.367Z,80.01
2023-01-17T18:46:28.436Z,81.18
2023-01-17T18:48:58.346Z,84.64
2023-01-17T18:51:25.915Z,84.05
2023-01-17T18:53:55.473Z,84.66
2023-01-17T18:56:23.274Z,83.81
2023-01-17T18:58:51.039Z,83.01
2023-01-17T19:01:23.705Z,83.14
2023-01-17T19:03:53.020Z,82.44
2023-01-17T19:06:23.532Z,83.96
2023-01-17T19:08:51.928Z,83.85
2023-01-17T19:11:19.790Z,84.48
2023-01-17T19:13:46.343Z,84.49
2023-01-17T19:16:20.066Z,86.68
2023-01-17T19:18:47.378Z,86.19
2023-01-17T19:21:17.215Z,85.72
2023-01-17T19:23:43.849Z,86.31
2023-01-17T19:26:12.553Z,86.23
2023-01-17T19:28:41.016Z,86.33
2023-01-17T19:31:10.358Z,86.29
2023-01-17T19:33:39.138Z,86.67
2023-01-17T19:36:09.062Z,86.80
2023-01-17T19:38:37.357Z,87.27
2023-01-17T19:41:15.429Z,86.97
2023-01-17T19:43:42.555Z,85.92
2023-01-17T19:46:10.473Z,85.89
2023-01-17T19:48:38.377Z,85.88
2023-01-17T19:51:06.323Z,86.94
2023-01-17T19:56:16.692Z,87.21
2023-01-17T19:58:44.666Z,88.12
2023-01-17T20:01:16.811Z,87.64
2023-01-17T20:03:44.999Z,88.64
2023-01-17T20:06:17.221Z,87.00
2023-01-17T20:08:44.992Z,85.79
2023-01-17T20:11:14.947Z,85.72
2023-01-17T20:13:42.335Z,86.67
2023-01-17T20:16:11.538Z,86.93
2023-01-17T20:18:38.281Z,90.64
2023-01-17T20:21:10.370Z,88.46
2023-01-17T20:23:39.323Z,88.41
2023-01-17T20:28:39.669Z,90.32
2023-01-17T20:31:14.623Z,88.51
2023-01-17T20:33:43.360Z,88.54
2023-01-17T20:36:14.980Z,89.83
2023-01-17T20:38:45.820Z,92.19
2023-01-17T20:41:24.417Z,89.75
2023-01-17T20:43:53.417Z,88.65
2023-01-17T20:51:30.381Z,89.82
2023-01-17T20:53:59.857Z,89.38
2023-01-17T20:56:27.617Z,87.96
2023-01-17T20:58:56.208Z,87.42
2023-01-17T21:01:23.203Z,87.50
2023-01-17T21:03:53.229Z,88.45
2023-01-17T21:06:21.722Z,88.73
2023-01-17T21:08:49.089Z,90.25
2023-01-17T21:11:21.179Z,88.03
2023-01-17T21:13:48.911Z,88.91
2023-01-17T21:16:17.909Z,88.25
2023-01-17T21:18:48.603Z,89.72
2023-01-17T21:21:18.402Z,89.83
2023-01-17T21:23:45.628Z,89.64
2023-01-17T21:26:14.711Z,90.05
2023-01-17T21:28:43.337Z,90.69
2023-01-17T21:31:23.293Z,89.37
2023-01-17T21:34:10.013Z,89.86
2023-01-17T21:36:39.183Z,90.34
2023-01-17T21:39:10.786Z,90.42
2023-01-17T21:41:39.598Z,91.28
2023-01-17T21:44:11.569Z,90.84
2023-01-17T21:46:39.867Z,90.57
2023-01-17T21:49:10.725Z,90.80
2023-01-17T21:54:47.870Z,88.70
2023-01-17T21:57:35.920Z,88.88
2023-01-17T22:00:04.368Z,89.15
2023-01-17T22:02:30.908Z,88.99
2023-01-17T22:04:57.522Z,89.57
2023-01-17T22:07:27.191Z,89.68
2023-01-17T22:09:54.663Z,90.42
2023-01-17T22:12:21.200Z,90.40
2023-01-17T22:14:47.791Z,90.53
2023-01-17T22:17:14.325Z,91.52
2023-01-17T22:19:40.832Z,91.81
2023-01-17T22:22:07.472Z,91.33
2023-01-17T22:24:34.195Z,91.90
2023-01-17T22:29:34.658Z,91.66
2023-01-17T22:32:01.235Z,92.33
2023-01-17T22:34:27.859Z,92.03
2023-01-17T22:36:54.535Z,92.19
2023-01-17T22:39:21.428Z,91.96
2023-01-17T22:41:47.973Z,92.34
2023-01-17T22:44:14.792Z,92.25
2023-01-17T22:46:42.281Z,92.63
2023-01-17T22:49:13.455Z,92.87
2023-01-17T22:51:40.104Z,92.69
2023-01-17T22:54:06.741Z,92.80
2023-01-17T22:56:34.028Z,92.27
2023-01-17T22:59:01.270Z,92.65
2023-01-17T23:01:30.830Z,92.50
2023-01-17T23:03:59.415Z,92.73
2023-01-17T23:06:31.149Z,91.95
2023-01-17T23:09:00.985Z,92.65
2023-01-17T23:11:46.301Z,92.81
2023-01-17T23:14:20.259Z,92.53
2023-01-17T23:17:08.613Z,92.95
2023-01-17T23:19:49.455Z,92.59
2023-01-17T23:22:24.333Z,93.30
2023-01-17T23:25:02.250Z,93.12
2023-01-17T23:27:53.079Z,92.84
2023-01-17T23:30:29.202Z,92.72
2023-01-17T23:32:58.463Z,92.86
2023-01-17T23:35:28.087Z,91.87
2023-01-17T23:38:13.257Z,91.16
2023-01-17T23:40:40.502Z,91.65
2023-01-17T23:43:25.598Z,91.47
2023-01-17T23:45:54.062Z,91.37
2023-01-17T23:48:23.694Z,92.16
2023-01-17T23:50:50.612Z,93.55
2023-01-17T23:53:23.107Z,93.16
2023-01-17T23:55:52.390Z,93.89
2023-01-17T23:58:20.896Z,93.48
